createdAt,value
2022-09-14T00:00:07.610Z,18.45
2022-09-14T00:01:47.382Z,18.44
2022-09-14T00:03:27.147Z,18.4
2022-09-14T00:05:06.906Z,18.4
2022-09-14T00:06:46.663Z,18.39
2022-09-14T00:10:06.210Z,18.37
2022-09-14T00:11:45.994Z,18.33
2022-09-14T00:13:25.755Z,18.32
2022-09-14T00:15:05.540Z,18.32
2022-09-14T00:16:45.262Z,18.29
2022-09-14T00:18:25.016Z,18.27
2022-09-14T00:20:04.782Z,18.25
2022-09-14T00:21:44.543Z,18.27
2022-09-14T00:23:24.314Z,18.25
2022-09-14T00:25:04.077Z,18.21
2022-09-14T00:26:43.833Z,18.2
2022-09-14T00:28:23.622Z,18.2
2022-09-14T00:30:03.382Z,18.19
2022-09-14T00:31:43.141Z,18.17
2022-09-14T00:33:22.930Z,18.15
2022-09-14T00:35:02.659Z,18.14
2022-09-14T00:36:42.437Z,18.12
2022-09-14T00:38:22.194Z,18.11
2022-09-14T00:40:01.961Z,18.1
2022-09-14T00:41:41.747Z,18.07
2022-09-14T00:43:21.481Z,18.04
2022-09-14T00:45:01.253Z,18.04
2022-09-14T00:46:41.005Z,18.04
2022-09-14T00:48:20.768Z,18.03
2022-09-14T00:50:00.541Z,18.01
2022-09-14T00:51:40.320Z,18
2022-09-14T00:53:20.085Z,17.99
2022-09-14T00:54:59.854Z,17.95
2022-09-14T00:56:39.604Z,17.95
2022-09-14T00:58:19.386Z,17.94
2022-09-14T00:59:59.140Z,17.92
2022-09-14T01:01:38.891Z,17.9
2022-09-14T01:03:18.662Z,17.87
2022-09-14T01:04:58.452Z,17.86
2022-09-14T01:06:38.203Z,17.85
2022-09-14T01:08:17.959Z,17.84
2022-09-14T01:09:57.716Z,17.83
2022-09-14T01:11:37.479Z,17.81
2022-09-14T01:13:17.255Z,17.79
2022-09-14T01:14:57.011Z,17.78
2022-09-14T01:16:36.767Z,17.75
2022-09-14T01:18:16.543Z,17.76
2022-09-14T01:19:56.319Z,17.74
2022-09-14T01:21:36.073Z,17.71
2022-09-14T01:23:15.834Z,17.69
2022-09-14T01:24:55.609Z,17.68
2022-09-14T01:26:35.364Z,17.66
2022-09-14T01:28:15.126Z,17.65
2022-09-14T01:29:54.895Z,17.65
2022-09-14T01:31:34.674Z,17.62
2022-09-14T01:33:14.412Z,17.6
2022-09-14T01:34:54.199Z,17.59
2022-09-14T01:36:33.948Z,17.6
2022-09-14T01:38:13.712Z,17.58
2022-09-14T01:39:53.480Z,17.54
2022-09-14T01:41:33.234Z,17.53
2022-09-14T01:43:13.014Z,17.53
2022-09-14T01:44:52.775Z,17.51
2022-09-14T01:46:32.542Z,17.48
2022-09-14T01:48:12.303Z,17.48
2022-09-14T01:49:52.076Z,17.45
2022-09-14T01:51:31.831Z,17.45
2022-09-14T01:53:11.629Z,17.44
2022-09-14T01:54:51.363Z,17.43
2022-09-14T01:58:10.884Z,17.4
2022-09-14T01:59:50.653Z,17.37
2022-09-14T02:01:30.414Z,17.35
2022-09-14T02:03:10.173Z,17.35
2022-09-14T02:04:49.939Z,17.32
2022-09-14T02:06:29.705Z,17.31
2022-09-14T02:08:09.470Z,17.29
2022-09-14T02:09:49.239Z,17.28
2022-09-14T02:11:28.994Z,17.26
2022-09-14T02:13:08.765Z,17.23
2022-09-14T02:14:48.524Z,17.21
2022-09-14T02:16:28.286Z,17.21
2022-09-14T02:18:08.064Z,17.2
2022-09-14T02:19:47.826Z,17.18
2022-09-14T02:21:27.587Z,17.16
2022-09-14T02:23:07.348Z,17.16
2022-09-14T02:24:47.113Z,17.14
2022-09-14T02:26:26.883Z,17.12
2022-09-14T02:28:06.649Z,17.11
2022-09-14T02:29:46.415Z,17.09
2022-09-14T02:31:26.190Z,17.07
2022-09-14T02:33:05.932Z,17.06
2022-09-14T02:34:45.709Z,17.06
2022-09-14T02:36:25.465Z,17.04
2022-09-14T02:38:05.248Z,17
2022-09-14T02:39:45.023Z,17
2022-09-14T02:41:24.753Z,16.99
2022-09-14T02:43:04.519Z,16.95
2022-09-14T02:44:44.290Z,16.95
2022-09-14T02:46:24.048Z,16.94
2022-09-14T02:48:03.815Z,16.94
2022-09-14T02:49:43.609Z,16.92
2022-09-14T02:51:23.356Z,16.9
2022-09-14T02:53:03.114Z,16.89
2022-09-14T02:54:42.867Z,16.85
2022-09-14T02:56:22.645Z,16.84
2022-09-14T02:58:02.401Z,16.84
2022-09-14T02:59:42.161Z,16.82
2022-09-14T03:01:21.939Z,16.79
2022-09-14T03:03:01.692Z,16.79
2022-09-14T03:04:41.469Z,16.79
2022-09-14T03:06:21.248Z,16.77
2022-09-14T03:08:00.989Z,16.76
2022-09-14T03:09:40.758Z,16.73
2022-09-14T03:11:20.570Z,16.71
2022-09-14T03:13:00.315Z,16.71
2022-09-14T03:14:40.055Z,16.69
2022-09-14T03:16:19.842Z,16.68
2022-09-14T03:17:59.577Z,16.68
2022-09-14T03:19:39.331Z,16.66
2022-09-14T03:21:19.096Z,16.64
2022-09-14T03:22:58.863Z,16.62
2022-09-14T03:24:38.629Z,16.61
2022-09-14T03:26:18.398Z,16.59
2022-09-14T03:27:58.178Z,16.59
2022-09-14T03:29:37.938Z,16.57
2022-09-14T03:31:17.684Z,16.54
2022-09-14T03:32:57.463Z,16.53
2022-09-14T03:34:37.248Z,16.54
2022-09-14T03:36:16.980Z,16.53
2022-09-14T03:37:56.754Z,16.51
2022-09-14T03:39:36.513Z,16.49
2022-09-14T03:41:16.272Z,16.49
2022-09-14T03:42:56.054Z,16.45
2022-09-14T03:44:35.808Z,16.44
2022-09-14T03:46:15.581Z,16.44
2022-09-14T03:47:55.330Z,16.42
2022-09-14T03:49:35.104Z,16.42
2022-09-14T03:51:14.862Z,16.41
2022-09-14T03:52:54.625Z,16.4
2022-09-14T03:54:34.403Z,16.37
2022-09-14T03:56:14.157Z,16.36
2022-09-14T03:57:53.934Z,16.36
2022-09-14T03:59:33.692Z,16.35
2022-09-14T04:01:13.442Z,16.34
2022-09-14T04:02:53.220Z,16.33
2022-09-14T04:04:32.979Z,16.29
2022-09-14T04:06:12.742Z,16.31
2022-09-14T04:07:52.498Z,16.29
2022-09-14T04:09:32.275Z,16.26
2022-09-14T04:11:12.045Z,16.25
2022-09-14T04:12:51.807Z,16.25
2022-09-14T04:14:31.564Z,16.21
2022-09-14T04:16:11.326Z,16.21
2022-09-14T04:17:51.099Z,16.21
2022-09-14T04:19:30.862Z,16.2
2022-09-14T04:21:10.658Z,16.18
2022-09-14T04:22:50.410Z,16.2
2022-09-14T04:24:30.148Z,16.2
2022-09-14T04:26:09.931Z,16.2
2022-09-14T04:27:49.672Z,16.24
2022-09-14T04:29:29.456Z,16.25
2022-09-14T04:31:09.228Z,16.29
2022-09-14T04:32:48.965Z,16.28
2022-09-14T04:34:28.737Z,16.29
2022-09-14T04:36:08.497Z,16.28
2022-09-14T04:37:48.270Z,16.29
2022-09-14T04:41:07.809Z,16.29
2022-09-14T04:42:47.559Z,16.32
2022-09-14T04:44:27.325Z,16.34
2022-09-14T04:46:07.093Z,16.33
2022-09-14T04:47:46.861Z,16.35
2022-09-14T04:49:26.607Z,16.35
2022-09-14T04:52:46.150Z,16.36
2022-09-14T04:54:25.963Z,16.37
2022-09-14T04:56:05.676Z,16.36
2022-09-14T04:57:45.444Z,16.37
2022-09-14T04:59:25.216Z,16.37
2022-09-14T05:01:04.982Z,16.37
2022-09-14T05:02:44.734Z,16.39
2022-09-14T05:04:24.525Z,16.39
2022-09-14T05:06:04.278Z,16.41
2022-09-14T05:07:44.061Z,16.42
2022-09-14T05:09:23.802Z,16.4
2022-09-14T05:11:03.575Z,16.43
2022-09-14T05:12:43.346Z,16.4
2022-09-14T05:14:23.136Z,16.4
2022-09-14T05:16:02.886Z,16.42
2022-09-14T05:17:42.654Z,16.4
2022-09-14T05:19:22.454Z,16.44
2022-09-14T05:21:02.195Z,16.41
2022-09-14T05:22:41.973Z,16.43
2022-09-14T05:24:21.739Z,16.43
2022-09-14T05:26:01.512Z,16.43
2022-09-14T05:27:41.283Z,16.45
2022-09-14T05:29:21.054Z,16.44
2022-09-14T05:31:00.812Z,16.45
2022-09-14T05:32:40.575Z,16.45
2022-09-14T05:34:20.362Z,16.49
2022-09-14T05:36:00.149Z,16.48
2022-09-14T05:37:39.903Z,16.49
2022-09-14T05:39:19.667Z,16.5
2022-09-14T05:40:59.486Z,16.48
2022-09-14T05:42:39.214Z,16.5
2022-09-14T05:44:19.058Z,16.49
2022-09-14T05:45:58.743Z,16.5
2022-09-14T05:47:38.534Z,16.51
2022-09-14T05:49:18.287Z,16.5
2022-09-14T05:50:58.055Z,16.51
2022-09-14T05:52:37.841Z,16.54
2022-09-14T05:54:17.630Z,16.53
2022-09-14T05:55:57.374Z,16.54
2022-09-14T05:57:37.166Z,16.56
2022-09-14T05:59:16.895Z,16.54
2022-09-14T06:00:56.719Z,16.53
2022-09-14T06:02:36.494Z,16.56
2022-09-14T06:04:16.252Z,16.54
2022-09-14T06:05:55.987Z,16.56
2022-09-14T06:07:35.749Z,16.57
2022-09-14T06:09:15.564Z,16.61
2022-09-14T06:10:55.295Z,16.6
2022-09-14T06:12:35.055Z,16.62
2022-09-14T06:14:14.878Z,16.61
2022-09-14T06:15:54.624Z,16.61
2022-09-14T06:17:34.366Z,16.62
2022-09-14T06:19:14.148Z,16.62
2022-09-14T06:20:54.029Z,16.62
2022-09-14T06:22:33.704Z,16.61
2022-09-14T06:24:13.503Z,16.64
2022-09-14T06:25:53.270Z,16.7
2022-09-14T06:27:33.010Z,16.74
2022-09-14T06:29:12.792Z,16.81
2022-09-14T06:30:52.530Z,16.93
2022-09-14T06:32:32.301Z,16.95
2022-09-14T06:34:12.110Z,17.06
2022-09-14T06:35:51.847Z,17.1
2022-09-14T06:37:31.676Z,17.19
2022-09-14T06:39:11.390Z,17.23
2022-09-14T06:40:51.160Z,17.32
2022-09-14T06:42:30.934Z,17.37
2022-09-14T06:44:10.712Z,17.43
2022-09-14T06:45:50.470Z,17.49
2022-09-14T06:47:30.245Z,17.53
2022-09-14T06:49:10.021Z,17.62
2022-09-14T06:50:49.824Z,17.67
2022-09-14T06:52:29.557Z,17.71
2022-09-14T06:54:09.315Z,17.77
2022-09-14T06:55:49.102Z,17.82
2022-09-14T06:57:28.916Z,17.87
2022-09-14T06:59:08.654Z,17.95
2022-09-14T07:00:48.392Z,18.01
2022-09-14T07:02:28.173Z,18.04
2022-09-14T07:04:08.012Z,18.11
2022-09-14T07:05:47.715Z,18.12
2022-09-14T07:07:27.481Z,18.2
2022-09-14T07:10:47.021Z,18.26
2022-09-14T07:12:26.800Z,18.31
2022-09-14T07:14:06.600Z,18.35
2022-09-14T07:15:46.335Z,18.39
2022-09-14T07:17:26.139Z,18.42
2022-09-14T07:19:05.904Z,18.46
2022-09-14T07:20:45.638Z,18.52
2022-09-14T07:22:25.466Z,18.56
2022-09-14T07:24:05.253Z,18.57
2022-09-14T07:25:44.951Z,18.64
2022-09-14T07:27:24.748Z,18.64
2022-09-14T07:29:04.494Z,18.7
2022-09-14T07:30:44.262Z,18.74
2022-09-14T07:32:24.119Z,18.76
2022-09-14T07:34:03.939Z,18.78
2022-09-14T07:35:43.584Z,18.82
2022-09-14T07:37:23.361Z,18.85
2022-09-14T07:39:03.125Z,18.9
2022-09-14T07:40:42.888Z,18.93
2022-09-14T07:42:22.661Z,18.98
2022-09-14T07:44:02.429Z,19
2022-09-14T07:45:42.204Z,19.04
2022-09-14T07:47:21.987Z,19.09
2022-09-14T07:49:01.737Z,19.09
2022-09-14T07:50:41.510Z,19.12
2022-09-14T07:52:21.283Z,19.16
2022-09-14T07:54:01.069Z,19.2
2022-09-14T07:55:40.928Z,19.25
2022-09-14T07:57:20.599Z,19.28
2022-09-14T07:59:00.374Z,19.27
2022-09-14T08:00:40.159Z,19.32
2022-09-14T08:02:19.911Z,19.34
2022-09-14T08:03:59.687Z,19.39
2022-09-14T08:05:39.449Z,19.4
2022-09-14T08:07:19.215Z,19.45
2022-09-14T08:08:58.991Z,19.45
2022-09-14T08:10:38.774Z,19.5
2022-09-14T08:12:18.536Z,19.52
2022-09-14T08:13:58.296Z,19.54
2022-09-14T08:15:38.057Z,19.58
2022-09-14T08:17:17.831Z,19.6
2022-09-14T08:18:57.605Z,19.66
2022-09-14T08:20:37.373Z,19.65
2022-09-14T08:22:17.150Z,19.7
2022-09-14T08:23:56.916Z,19.7
2022-09-14T08:25:36.691Z,19.73
2022-09-14T08:27:16.463Z,19.77
2022-09-14T08:28:56.241Z,19.81
2022-09-14T08:30:35.997Z,19.84
2022-09-14T08:32:15.770Z,19.84
2022-09-14T08:33:55.552Z,19.89
2022-09-14T08:35:35.314Z,19.9
2022-09-14T08:37:15.087Z,19.94
2022-09-14T08:38:54.852Z,19.96
2022-09-14T08:40:34.623Z,19.99
2022-09-14T08:42:14.402Z,20.02
2022-09-14T08:43:54.171Z,20.06
2022-09-14T08:45:33.933Z,20.1
2022-09-14T08:47:13.721Z,20.1
2022-09-14T08:48:53.471Z,20.15
2022-09-14T08:50:33.250Z,20.16
2022-09-14T08:52:13.014Z,20.19
2022-09-14T08:53:52.787Z,20.24
2022-09-14T08:55:32.598Z,20.26
2022-09-14T08:57:12.342Z,20.29
2022-09-14T08:58:52.092Z,20.32
2022-09-14T09:00:31.891Z,20.37
2022-09-14T09:02:11.688Z,20.41
2022-09-14T09:03:51.421Z,20.43
2022-09-14T09:05:31.229Z,20.45
2022-09-14T09:10:30.534Z,20.56
2022-09-14T09:12:10.263Z,20.57
2022-09-14T09:13:50.116Z,20.62
2022-09-14T09:15:29.807Z,20.65
2022-09-14T09:17:09.564Z,20.68
2022-09-14T09:18:49.350Z,20.72
2022-09-14T09:20:29.112Z,20.75
2022-09-14T09:22:08.894Z,20.76
2022-09-14T09:23:48.664Z,20.78
2022-09-14T09:25:28.541Z,20.84
2022-09-14T09:27:08.199Z,20.85
2022-09-14T09:28:47.985Z,20.86
2022-09-14T09:30:27.749Z,20.85
2022-09-14T09:32:07.518Z,20.78
2022-09-14T09:33:47.284Z,20.73
2022-09-14T09:37:06.817Z,20.59
2022-09-14T09:38:46.586Z,20.56
2022-09-14T09:40:26.359Z,20.51
2022-09-14T09:42:06.124Z,20.49
2022-09-14T09:43:45.886Z,20.51
2022-09-14T09:45:25.666Z,20.52
2022-09-14T09:47:05.430Z,20.52
2022-09-14T09:48:45.208Z,20.52
2022-09-14T09:50:25.017Z,20.54
2022-09-14T09:52:04.748Z,20.54
2022-09-14T09:53:44.523Z,20.57
2022-09-14T09:55:24.281Z,20.58
2022-09-14T09:57:04.108Z,20.56
2022-09-14T09:58:43.821Z,20.57
2022-09-14T10:00:23.584Z,20.61
2022-09-14T10:02:03.366Z,20.6
2022-09-14T10:03:43.162Z,20.63
2022-09-14T10:05:22.910Z,20.64
2022-09-14T10:07:02.690Z,20.64
2022-09-14T10:08:42.524Z,20.69
2022-09-14T10:10:22.234Z,20.71
2022-09-14T10:12:02.099Z,20.73
2022-09-14T10:13:41.774Z,20.74
2022-09-14T10:15:21.526Z,20.76
2022-09-14T10:17:01.283Z,20.75
2022-09-14T10:18:41.063Z,20.77
2022-09-14T10:20:20.842Z,20.79
2022-09-14T10:22:00.599Z,20.81
2022-09-14T10:23:40.379Z,20.82
2022-09-14T10:25:20.159Z,20.83
2022-09-14T10:26:59.919Z,20.85
2022-09-14T10:28:39.680Z,20.85
2022-09-14T10:30:19.440Z,20.9
2022-09-14T10:31:59.224Z,20.87
2022-09-14T10:33:38.992Z,20.9
2022-09-14T10:35:18.793Z,20.94
2022-09-14T10:36:58.538Z,20.94
2022-09-14T10:38:38.313Z,20.95
2022-09-14T10:40:18.070Z,20.99
2022-09-14T10:41:57.849Z,20.99
2022-09-14T10:43:37.612Z,21.03
2022-09-14T10:45:17.470Z,21.04
2022-09-14T10:46:57.157Z,21.04
2022-09-14T10:48:36.932Z,21.08
2022-09-14T10:50:16.794Z,21.09
2022-09-14T10:51:56.495Z,21.1
2022-09-14T10:53:36.322Z,21.11
2022-09-14T10:55:16.138Z,21.12
2022-09-14T10:56:55.786Z,21.14
2022-09-14T10:58:35.615Z,21.16
2022-09-14T11:00:15.368Z,21.15
2022-09-14T11:01:55.150Z,21.18
2022-09-14T11:03:34.914Z,21.2
2022-09-14T11:05:14.757Z,21.2
2022-09-14T11:06:54.435Z,21.22
2022-09-14T11:08:34.246Z,21.23
2022-09-14T11:10:14.011Z,21.23
2022-09-14T11:11:53.720Z,21.26
2022-09-14T11:13:33.496Z,21.27
2022-09-14T11:15:13.259Z,21.3
2022-09-14T11:16:53.036Z,21.33
2022-09-14T11:18:32.784Z,21.33
2022-09-14T11:20:12.561Z,21.35
2022-09-14T11:21:52.374Z,21.35
2022-09-14T11:23:32.111Z,21.36
2022-09-14T11:25:11.906Z,21.42
2022-09-14T11:26:51.674Z,21.4
2022-09-14T11:28:31.424Z,21.44
2022-09-14T11:30:11.187Z,21.43
2022-09-14T11:31:50.969Z,21.47
2022-09-14T11:33:30.726Z,21.48
2022-09-14T11:35:10.504Z,21.49
2022-09-14T11:36:50.283Z,21.52
2022-09-14T11:38:30.085Z,21.55
2022-09-14T11:40:09.806Z,21.57
2022-09-14T11:41:49.656Z,21.6
2022-09-14T11:43:29.348Z,21.61
2022-09-14T11:45:09.124Z,21.64
2022-09-14T11:46:48.897Z,21.67
2022-09-14T11:48:28.657Z,21.71
2022-09-14T11:50:08.482Z,21.71
2022-09-14T11:51:48.316Z,21.72
2022-09-14T11:53:27.988Z,21.75
2022-09-14T11:55:07.750Z,21.77
2022-09-14T11:56:47.509Z,21.79
2022-09-14T11:58:27.300Z,21.81
2022-09-14T12:01:46.826Z,21.86
2022-09-14T12:03:26.618Z,21.91
2022-09-14T12:05:06.361Z,21.93
2022-09-14T12:06:46.146Z,21.93
2022-09-14T12:08:25.914Z,21.95
2022-09-14T12:10:05.694Z,21.97
2022-09-14T12:11:45.451Z,22.01
2022-09-14T12:13:25.224Z,22.02
2022-09-14T12:15:05.010Z,22.05
2022-09-14T12:16:44.768Z,22.05
2022-09-14T12:18:24.527Z,22.09
2022-09-14T12:20:04.391Z,22.07
2022-09-14T12:21:44.219Z,22.13
2022-09-14T12:23:23.859Z,22.13
2022-09-14T12:25:03.609Z,22.18
2022-09-14T12:26:43.496Z,22.18
2022-09-14T12:28:23.150Z,22.2
2022-09-14T12:30:02.947Z,22.2
2022-09-14T12:31:42.698Z,22.26
2022-09-14T12:33:22.466Z,22.29
2022-09-14T12:35:02.238Z,22.3
2022-09-14T12:38:21.772Z,22.32
2022-09-14T12:40:01.555Z,22.35
2022-09-14T12:41:41.327Z,22.37
2022-09-14T12:43:21.089Z,22.36
2022-09-14T12:45:00.860Z,22.39
2022-09-14T12:46:40.630Z,22.39
2022-09-14T12:48:20.411Z,22.4
2022-09-14T12:50:00.209Z,22.44
2022-09-14T12:51:39.951Z,22.46
2022-09-14T12:53:19.794Z,22.46
2022-09-14T12:54:59.500Z,22.48
2022-09-14T12:56:39.305Z,22.48
2022-09-14T12:58:19.023Z,22.51
2022-09-14T12:59:58.795Z,22.5
2022-09-14T13:01:38.661Z,22.51
2022-09-14T13:03:18.418Z,22.53
2022-09-14T13:04:58.116Z,22.55
2022-09-14T13:06:37.884Z,22.57
2022-09-14T13:08:17.658Z,22.58
2022-09-14T13:09:57.429Z,22.58
2022-09-14T13:11:37.202Z,22.6
2022-09-14T13:13:16.949Z,22.64
2022-09-14T13:14:56.747Z,22.64
2022-09-14T13:16:36.574Z,22.65
2022-09-14T13:18:16.419Z,22.66
2022-09-14T13:19:56.161Z,22.65
2022-09-14T13:21:35.809Z,22.68
2022-09-14T13:23:15.583Z,22.7
2022-09-14T13:24:55.476Z,22.7
2022-09-14T13:28:14.931Z,22.7
2022-09-14T13:29:54.812Z,22.72
2022-09-14T13:31:34.459Z,22.72
2022-09-14T13:33:14.262Z,22.73
2022-09-14T13:34:54.019Z,22.75
2022-09-14T13:36:33.768Z,22.75
2022-09-14T13:38:13.603Z,22.77
2022-09-14T13:39:53.292Z,22.77
2022-09-14T13:41:33.048Z,22.77
2022-09-14T13:43:12.823Z,22.81
2022-09-14T13:44:52.604Z,22.78
2022-09-14T13:46:32.359Z,22.8
2022-09-14T13:48:12.134Z,22.82
2022-09-14T13:49:51.908Z,22.8
2022-09-14T13:51:31.667Z,22.84
2022-09-14T13:53:11.447Z,22.84
2022-09-14T13:54:51.209Z,22.84
2022-09-14T13:56:30.984Z,22.84
2022-09-14T13:58:10.748Z,22.83
2022-09-14T13:59:50.528Z,22.86
2022-09-14T14:01:30.284Z,22.85
2022-09-14T14:03:10.069Z,22.85
2022-09-14T14:04:49.842Z,22.85
2022-09-14T14:06:29.684Z,22.85
2022-09-14T14:08:09.389Z,22.85
2022-09-14T14:09:49.144Z,22.87
2022-09-14T14:11:28.940Z,22.87
2022-09-14T14:13:08.705Z,22.87
2022-09-14T14:14:48.460Z,22.86
2022-09-14T14:16:28.227Z,22.86
2022-09-14T14:18:08.000Z,22.86
2022-09-14T14:19:47.771Z,22.87
2022-09-14T14:21:27.564Z,22.86
2022-09-14T14:23:07.349Z,22.87
2022-09-14T14:24:47.076Z,22.85
2022-09-14T14:26:26.854Z,22.87
2022-09-14T14:28:06.611Z,22.85
2022-09-14T14:29:46.379Z,22.85
2022-09-14T14:31:26.155Z,22.86
2022-09-14T14:33:05.946Z,22.83
2022-09-14T14:34:45.696Z,22.84
2022-09-14T14:36:25.452Z,22.85
2022-09-14T14:38:05.379Z,22.84
2022-09-14T14:39:45.151Z,22.85
2022-09-14T14:41:24.765Z,22.84
2022-09-14T14:43:04.542Z,22.82
2022-09-14T14:44:44.308Z,22.82
2022-09-14T14:46:24.202Z,22.8
2022-09-14T14:48:03.882Z,22.8
2022-09-14T14:49:43.679Z,22.83
2022-09-14T14:51:23.405Z,22.79
2022-09-14T14:53:03.155Z,22.77
2022-09-14T14:54:42.923Z,22.78
2022-09-14T14:56:22.682Z,22.77
2022-09-14T14:58:02.454Z,22.79
2022-09-14T14:59:42.238Z,22.78
2022-09-14T15:01:22.011Z,22.78
2022-09-14T15:03:01.777Z,22.79
2022-09-14T15:04:41.558Z,22.76
2022-09-14T15:06:21.307Z,22.76
2022-09-14T15:08:01.083Z,22.73
2022-09-14T15:09:40.932Z,22.74
2022-09-14T15:11:20.619Z,22.73
2022-09-14T15:13:00.395Z,22.72
2022-09-14T15:14:40.147Z,22.72
2022-09-14T15:16:19.916Z,22.72
2022-09-14T15:17:59.688Z,22.71
2022-09-14T15:19:39.515Z,22.7
2022-09-14T15:21:19.235Z,22.68
2022-09-14T15:22:59.016Z,22.69
2022-09-14T15:24:38.778Z,22.66
2022-09-14T15:26:18.537Z,22.66
2022-09-14T15:27:58.322Z,22.65
2022-09-14T15:29:38.087Z,22.64
2022-09-14T15:31:17.860Z,22.62
2022-09-14T15:32:57.626Z,22.62
2022-09-14T15:34:37.394Z,22.64
2022-09-14T15:36:17.172Z,22.62
2022-09-14T15:37:56.938Z,22.62
2022-09-14T15:39:36.703Z,22.59
2022-09-14T15:41:16.492Z,22.57
2022-09-14T15:42:56.251Z,22.57
2022-09-14T15:44:36.002Z,22.59
2022-09-14T15:46:15.776Z,22.56
2022-09-14T15:47:55.544Z,22.57
2022-09-14T15:49:35.314Z,22.55
2022-09-14T15:51:15.085Z,22.56
2022-09-14T15:52:54.866Z,22.53
2022-09-14T15:54:34.622Z,22.54
2022-09-14T15:56:14.405Z,22.53
2022-09-14T15:57:54.175Z,22.5
2022-09-14T15:59:33.932Z,22.52
2022-09-14T16:01:13.712Z,22.51
2022-09-14T16:02:53.487Z,22.49
2022-09-14T16:04:33.251Z,22.46
2022-09-14T16:06:13.036Z,22.48
2022-09-14T16:07:52.790Z,22.47
2022-09-14T16:09:32.548Z,22.47
2022-09-14T16:11:12.317Z,22.45
2022-09-14T16:12:52.099Z,22.44
2022-09-14T16:14:31.901Z,22.43
2022-09-14T16:16:11.630Z,22.42
2022-09-14T16:17:51.408Z,22.42
2022-09-14T16:19:31.182Z,22.41
2022-09-14T16:21:10.948Z,22.39
2022-09-14T16:22:50.723Z,22.39
2022-09-14T16:24:30.484Z,22.38
2022-09-14T16:26:10.265Z,22.39
2022-09-14T16:27:50.018Z,22.36
2022-09-14T16:29:29.796Z,22.37
2022-09-14T16:31:09.562Z,22.34
2022-09-14T16:32:49.335Z,22.33
2022-09-14T16:34:29.108Z,22.34
2022-09-14T16:36:08.885Z,22.3
2022-09-14T16:37:48.656Z,22.33
2022-09-14T16:39:28.435Z,22.3
2022-09-14T16:41:08.189Z,22.3
2022-09-14T16:42:47.953Z,22.24
2022-09-14T16:44:27.746Z,22.2
2022-09-14T16:47:47.268Z,22.12
2022-09-14T16:49:27.038Z,22.11
2022-09-14T16:51:06.810Z,22.08
2022-09-14T16:52:46.572Z,22.04
2022-09-14T16:56:06.111Z,22
2022-09-14T16:57:45.891Z,21.99
2022-09-14T16:59:25.683Z,21.96
2022-09-14T17:01:05.429Z,21.94
2022-09-14T17:02:45.202Z,21.92
2022-09-14T17:04:24.978Z,21.88
2022-09-14T17:06:04.733Z,21.86
2022-09-14T17:09:24.276Z,21.84
2022-09-14T17:11:04.022Z,21.8
2022-09-14T17:12:43.802Z,21.76
2022-09-14T17:14:23.574Z,21.73
2022-09-14T17:16:03.345Z,21.71
2022-09-14T17:17:43.105Z,21.7
2022-09-14T17:19:22.865Z,21.67
2022-09-14T17:21:02.659Z,21.66
2022-09-14T17:22:42.410Z,21.65
2022-09-14T17:24:22.180Z,21.61
2022-09-14T17:26:01.939Z,21.62
2022-09-14T17:27:41.699Z,21.59
2022-09-14T17:29:21.478Z,21.55
2022-09-14T17:31:01.266Z,21.53
2022-09-14T17:34:20.781Z,21.49
2022-09-14T17:36:00.539Z,21.49
2022-09-14T17:37:40.308Z,21.45
2022-09-14T17:39:20.080Z,21.45
2022-09-14T17:40:59.863Z,21.41
2022-09-14T17:42:39.620Z,21.36
2022-09-14T17:44:19.381Z,21.32
2022-09-14T17:45:59.151Z,21.29
2022-09-14T17:47:38.933Z,21.25
2022-09-14T17:49:18.706Z,21.21
2022-09-14T17:50:58.447Z,21.18
2022-09-14T17:52:38.227Z,21.11
2022-09-14T17:54:17.990Z,21.08
2022-09-14T17:55:57.751Z,21.05
2022-09-14T17:57:37.520Z,21.01
2022-09-14T17:59:17.292Z,20.97
2022-09-14T18:00:57.062Z,20.95
2022-09-14T18:02:36.829Z,20.92
2022-09-14T18:04:16.589Z,20.88
2022-09-14T18:05:56.367Z,20.83
2022-09-14T18:07:36.134Z,20.82
2022-09-14T18:09:15.899Z,20.79
2022-09-14T18:10:55.674Z,20.75
2022-09-14T18:12:35.431Z,20.72
2022-09-14T18:14:15.202Z,20.68
2022-09-14T18:15:54.967Z,20.68
2022-09-14T18:17:34.750Z,20.63
2022-09-14T18:19:14.509Z,20.62
2022-09-14T18:20:54.276Z,20.59
2022-09-14T18:22:34.035Z,20.56
2022-09-14T18:24:13.803Z,20.54
2022-09-14T18:25:53.578Z,20.5
2022-09-14T18:27:33.322Z,20.46
2022-09-14T18:29:13.132Z,20.45
2022-09-14T18:30:52.864Z,20.42
2022-09-14T18:32:32.626Z,20.41
2022-09-14T18:34:12.402Z,20.39
2022-09-14T18:35:52.171Z,20.37
2022-09-14T18:37:31.948Z,20.33
2022-09-14T18:39:11.698Z,20.32
2022-09-14T18:40:51.468Z,20.28
2022-09-14T18:42:31.243Z,20.27
2022-09-14T18:44:11.002Z,20.27
2022-09-14T18:45:50.770Z,20.24
2022-09-14T18:47:30.537Z,20.2
2022-09-14T18:49:10.307Z,20.2
2022-09-14T18:50:50.078Z,20.18
2022-09-14T18:52:29.836Z,20.17
2022-09-14T18:54:09.619Z,20.12
2022-09-14T18:55:49.380Z,20.12
2022-09-14T18:57:29.156Z,20.08
2022-09-14T18:59:08.940Z,20.08
2022-09-14T19:00:48.676Z,20.04
2022-09-14T19:02:28.476Z,20.04
2022-09-14T19:04:08.217Z,20.02
2022-09-14T19:05:47.980Z,20.01
2022-09-14T19:07:27.748Z,19.96
2022-09-14T19:09:07.534Z,19.95
2022-09-14T19:10:47.287Z,19.95
2022-09-14T19:12:27.057Z,19.92
2022-09-14T19:14:06.829Z,19.9
2022-09-14T19:15:46.585Z,19.91
2022-09-14T19:17:26.388Z,19.9
2022-09-14T19:19:06.117Z,19.86
2022-09-14T19:20:45.895Z,19.86
2022-09-14T19:22:25.668Z,19.85
2022-09-14T19:24:05.478Z,19.81
2022-09-14T19:25:45.196Z,19.79
2022-09-14T19:27:24.961Z,19.79
2022-09-14T19:29:04.733Z,19.77
2022-09-14T19:30:44.514Z,19.74
2022-09-14T19:32:24.268Z,19.75
2022-09-14T19:34:04.021Z,19.71
2022-09-14T19:35:43.800Z,19.7
2022-09-14T19:37:23.575Z,19.7
2022-09-14T19:39:03.330Z,19.69
2022-09-14T19:40:43.119Z,19.66
2022-09-14T19:42:22.869Z,19.66
2022-09-14T19:44:02.627Z,19.65
2022-09-14T19:45:42.409Z,19.62
2022-09-14T19:47:22.197Z,19.61
2022-09-14T19:49:01.939Z,19.62
2022-09-14T19:50:41.714Z,19.58
2022-09-14T19:52:21.472Z,19.59
2022-09-14T19:54:01.249Z,19.56
2022-09-14T19:55:41.015Z,19.54
2022-09-14T19:57:20.776Z,19.54
2022-09-14T19:59:00.553Z,19.51
2022-09-14T20:00:40.310Z,19.52
2022-09-14T20:02:20.072Z,19.49
2022-09-14T20:03:59.859Z,19.48
2022-09-14T20:05:39.599Z,19.46
2022-09-14T20:07:19.370Z,19.46
2022-09-14T20:08:59.127Z,19.45
2022-09-14T20:10:38.891Z,19.43
2022-09-14T20:12:18.660Z,19.42
2022-09-14T20:13:58.415Z,19.42
2022-09-14T20:15:38.181Z,19.39
2022-09-14T20:17:17.955Z,19.39
2022-09-14T20:18:57.728Z,19.36
2022-09-14T20:20:37.480Z,19.35
2022-09-14T20:22:17.255Z,19.35
2022-09-14T20:23:57.018Z,19.33
2022-09-14T20:25:36.778Z,19.32
2022-09-14T20:27:16.549Z,19.32
2022-09-14T20:28:56.335Z,19.29
2022-09-14T20:30:36.092Z,19.29
2022-09-14T20:32:15.847Z,19.27
2022-09-14T20:33:55.618Z,19.25
2022-09-14T20:35:35.470Z,19.24
2022-09-14T20:37:15.295Z,19.24
2022-09-14T20:38:55.064Z,19.21
2022-09-14T20:40:34.836Z,19.2
2022-09-14T20:42:14.599Z,19.2
2022-09-14T20:43:54.361Z,19.19
2022-09-14T20:45:34.143Z,19.17
2022-09-14T20:47:13.905Z,19.17
2022-09-14T20:48:53.658Z,19.14
2022-09-14T20:50:33.422Z,19.15
2022-09-14T20:52:13.195Z,19.12
2022-09-14T20:53:52.945Z,19.11
2022-09-14T20:55:32.561Z,19.11
2022-09-14T20:57:12.471Z,19.08
2022-09-14T20:58:52.085Z,19.08
2022-09-14T21:00:32.013Z,19.07
2022-09-14T21:02:11.764Z,19.04
2022-09-14T21:03:51.397Z,19.03
2022-09-14T21:05:31.151Z,19.01
2022-09-14T21:07:11.088Z,19.01
2022-09-14T21:08:50.690Z,18.99
2022-09-14T21:10:30.576Z,18.96
2022-09-14T21:12:10.337Z,18.98
2022-09-14T21:13:50.085Z,18.94
2022-09-14T21:15:29.870Z,18.93
2022-09-14T21:17:09.532Z,18.93
2022-09-14T21:18:49.305Z,18.93
2022-09-14T21:20:29.167Z,18.91
2022-09-14T21:23:48.565Z,18.87
2022-09-14T21:25:28.319Z,18.87
2022-09-14T21:27:08.114Z,18.86
2022-09-14T21:28:47.963Z,18.86
2022-09-14T21:30:27.644Z,18.83
2022-09-14T21:32:07.487Z,18.82
2022-09-14T21:33:47.289Z,18.81
2022-09-14T21:35:26.941Z,18.81
2022-09-14T21:37:06.700Z,18.78
2022-09-14T21:38:46.452Z,18.78
2022-09-14T21:40:26.213Z,18.75
2022-09-14T21:42:06.029Z,18.74
2022-09-14T21:43:45.874Z,18.71
2022-09-14T21:45:25.506Z,18.73
2022-09-14T21:47:05.273Z,18.7
2022-09-14T21:48:45.102Z,18.7
2022-09-14T21:50:24.814Z,18.67
2022-09-14T21:52:04.626Z,18.66
2022-09-14T21:53:44.403Z,18.65
2022-09-14T21:55:24.102Z,18.66